createdAt,value
2018-11-26T00:00:32.064Z,8.80
2018-11-26T00:03:02.070Z,6.72
2018-11-26T00:05:31.214Z,8.70
2018-11-26T00:08:01.511Z,5.47
2018-11-26T00:10:42.523Z,5.22
2018-11-26T00:13:12.692Z,4.85
2018-11-26T00:15:45.916Z,5.17
2018-11-26T00:18:17.799Z,4.42
2018-11-26T00:20:47.484Z,3.90
2018-11-26T00:23:18.417Z,5.25
2018-11-26T00:25:48.998Z,4.28
2018-11-26T00:28:20.211Z,5.22
2018-11-26T00:30:52.096Z,7.60
2018-11-26T00:33:23.959Z,4.67
2018-11-26T00:35:53.963Z,4.78
2018-11-26T00:38:25.451Z,4.92
2018-11-26T00:40:57.480Z,3.95
2018-11-26T00:43:27.485Z,4.87
2018-11-26T00:45:57.730Z,5.33
2018-11-26T00:48:26.763Z,5.30
2018-11-26T00:50:55.902Z,6.70
2018-11-26T00:53:24.978Z,4.97
2018-11-26T00:55:54.796Z,4.10
2018-11-26T00:58:23.855Z,3.83
2018-11-26T01:00:53.610Z,6.40
2018-11-26T01:03:23.635Z,4.95
2018-11-26T01:05:53.762Z,3.85
2018-11-26T01:08:22.814Z,4.97
2018-11-26T01:10:52.323Z,5.85
2018-11-26T01:13:21.383Z,3.87
2018-11-26T01:15:50.918Z,7.65
2018-11-26T01:18:20.373Z,4.05
2018-11-26T01:20:49.418Z,3.95
2018-11-26T01:23:18.680Z,5.00
2018-11-26T01:25:48.873Z,6.92
2018-11-26T01:28:18.965Z,4.20
2018-11-26T01:30:50.729Z,3.47
2018-11-26T01:33:22.349Z,5.30
2018-11-26T01:35:52.577Z,4.37
2018-11-26T01:38:23.934Z,4.03
2018-11-26T01:40:56.286Z,4.42
2018-11-26T01:43:26.294Z,4.22
2018-11-26T01:45:56.246Z,3.42
2018-11-26T01:48:26.694Z,4.50
2018-11-26T01:50:56.956Z,5.42
2018-11-26T01:53:29.860Z,4.53
2018-11-26T01:56:01.639Z,6.22
2018-11-26T01:58:33.467Z,3.70
2018-11-26T02:01:05.383Z,3.58
2018-11-26T02:03:36.000Z,3.72
2018-11-26T02:06:06.151Z,4.22
2018-11-26T02:08:36.231Z,4.30
2018-11-26T02:11:07.491Z,3.17
2018-11-26T02:13:39.933Z,5.78
2018-11-26T02:16:12.143Z,3.95
2018-11-26T02:18:43.340Z,4.20
2018-11-26T02:21:13.345Z,3.70
2018-11-26T02:23:42.435Z,4.62
2018-11-26T02:26:11.516Z,3.62
2018-11-26T02:28:40.606Z,4.65
2018-11-26T02:31:10.943Z,4.33
2018-11-26T02:33:45.332Z,3.77
2018-11-26T02:36:15.579Z,3.98
2018-11-26T02:38:44.823Z,4.42
2018-11-26T02:41:14.890Z,7.15
2018-11-26T02:43:43.978Z,3.08
2018-11-26T02:46:13.023Z,3.47
2018-11-26T02:48:42.105Z,4.08
2018-11-26T02:51:11.145Z,4.85
2018-11-26T02:53:41.910Z,3.67
2018-11-26T02:56:11.518Z,4.33
2018-11-26T02:58:41.519Z,3.20
2018-11-26T03:01:11.745Z,3.33
2018-11-26T03:03:41.337Z,2.98
2018-11-26T03:06:10.408Z,4.12
2018-11-26T03:08:39.485Z,3.35
2018-11-26T03:11:08.546Z,3.00
2018-11-26T03:13:38.563Z,3.98
2018-11-26T03:16:08.259Z,3.35
2018-11-26T03:18:38.400Z,5.25
2018-11-26T03:21:07.467Z,3.35
2018-11-26T03:23:36.515Z,4.00
2018-11-26T03:26:05.977Z,5.83
2018-11-26T03:28:35.053Z,3.90
2018-11-26T03:31:05.494Z,4.08
2018-11-26T03:33:35.771Z,2.30
2018-11-26T03:36:09.507Z,4.20
2018-11-26T03:38:50.770Z,3.05
2018-11-26T03:41:21.099Z,3.67
2018-11-26T03:43:50.914Z,3.65
2018-11-26T03:46:20.678Z,3.22
2018-11-26T03:48:49.718Z,3.72
2018-11-26T03:51:18.809Z,3.10
2018-11-26T03:53:49.195Z,3.22
2018-11-26T03:56:19.095Z,3.35
2018-11-26T03:58:49.218Z,3.75
2018-11-26T04:01:18.907Z,3.20
2018-11-26T04:03:47.975Z,3.25
2018-11-26T04:06:17.052Z,3.52
2018-11-26T04:08:46.094Z,6.35
2018-11-26T04:11:15.142Z,4.20
2018-11-26T04:13:44.992Z,5.60
2018-11-26T04:16:15.130Z,4.50
2018-11-26T04:18:45.051Z,2.77
2018-11-26T04:21:14.739Z,3.50
2018-11-26T04:23:43.810Z,3.77
2018-11-26T04:26:12.881Z,3.55
2018-11-26T04:28:41.992Z,3.17
2018-11-26T04:31:12.650Z,3.30
2018-11-26T04:33:42.185Z,4.17
2018-11-26T04:36:12.031Z,3.70
2018-11-26T04:38:41.116Z,3.10
2018-11-26T04:41:10.199Z,3.02
2018-11-26T04:43:39.650Z,2.85
2018-11-26T04:46:08.728Z,3.30
2018-11-26T04:48:37.754Z,3.33
2018-11-26T04:51:07.782Z,2.75
2018-11-26T04:53:37.017Z,3.22
2018-11-26T04:56:07.603Z,4.80
2018-11-26T04:58:37.143Z,4.47
2018-11-26T05:01:06.722Z,3.92
2018-11-26T05:03:35.842Z,3.87
2018-11-26T05:06:05.187Z,4.72
2018-11-26T05:08:34.279Z,4.42
2018-11-26T05:11:04.327Z,5.95
2018-11-26T05:13:33.442Z,5.85
2018-11-26T05:16:03.158Z,3.50
2018-11-26T05:18:33.681Z,3.98
2018-11-26T05:21:02.804Z,6.03
2018-11-26T05:23:32.219Z,3.35
2018-11-26T05:26:01.290Z,4.35
2018-11-26T05:28:30.744Z,4.00
2018-11-26T05:31:00.981Z,3.85
2018-11-26T05:33:30.742Z,4.12
2018-11-26T05:35:59.917Z,6.60
2018-11-26T05:38:29.915Z,4.03
2018-11-26T05:40:58.985Z,3.98
2018-11-26T05:43:28.831Z,4.25
2018-11-26T05:45:58.526Z,3.50
2018-11-26T05:48:28.873Z,4.65
2018-11-26T05:50:58.567Z,4.40
2018-11-26T05:53:28.047Z,4.20
2018-11-26T05:55:57.571Z,5.65
2018-11-26T05:58:26.610Z,6.08
2018-11-26T06:00:56.220Z,4.08
2018-11-26T06:03:25.395Z,4.35
2018-11-26T06:05:54.470Z,5.22
2018-11-26T06:08:23.553Z,4.28
2018-11-26T06:10:52.623Z,3.87
2018-11-26T06:13:22.274Z,4.75
2018-11-26T06:15:52.085Z,5.90
2018-11-26T06:18:21.962Z,6.12
2018-11-26T06:20:51.026Z,8.10
2018-11-26T06:23:20.253Z,6.75
2018-11-26T06:25:49.327Z,8.70
2018-11-26T06:28:19.562Z,8.13
2018-11-26T06:30:49.215Z,5.05
2018-11-26T06:33:18.600Z,7.05
2018-11-26T06:35:47.676Z,5.97
2018-11-26T06:38:16.741Z,6.50
2018-11-26T06:40:45.895Z,6.55
2018-11-26T06:43:15.842Z,5.75
2018-11-26T06:45:44.887Z,7.50
2018-11-26T06:48:13.951Z,9.28
2018-11-26T06:50:43.627Z,5.35
2018-11-26T06:53:12.712Z,10.15
2018-11-26T06:55:42.631Z,9.45
2018-11-26T06:58:11.690Z,7.20
2018-11-26T07:00:41.236Z,6.95
2018-11-26T07:03:10.316Z,18.67
2018-11-26T07:05:39.734Z,19.77
2018-11-26T07:08:08.843Z,18.27
2018-11-26T07:10:37.926Z,14.38
2018-11-26T07:13:07.239Z,13.10
2018-11-26T07:15:37.254Z,14.55
2018-11-26T07:18:07.702Z,11.48
2018-11-26T07:20:36.902Z,11.28
2018-11-26T07:23:06.386Z,11.57
2018-11-26T07:25:37.055Z,9.15
2018-11-26T07:28:07.514Z,7.62
2018-11-26T07:30:37.439Z,7.58
2018-11-26T07:33:07.261Z,8.23
2018-11-26T07:35:36.396Z,9.60
2018-11-26T07:38:05.771Z,8.18
2018-11-26T07:40:35.046Z,6.90
2018-11-26T07:43:07.915Z,6.72
2018-11-26T07:45:37.538Z,8.53
2018-11-26T07:48:08.706Z,7.30
2018-11-26T07:50:37.873Z,9.35
2018-11-26T07:53:08.292Z,6.47
2018-11-26T07:55:37.904Z,8.70
2018-11-26T07:58:08.034Z,7.42
2018-11-26T08:00:38.153Z,7.45
2018-11-26T08:03:07.986Z,6.58
2018-11-26T08:05:37.763Z,7.03
2018-11-26T08:08:06.874Z,6.80
2018-11-26T08:10:36.627Z,6.80
2018-11-26T08:13:06.369Z,6.90
2018-11-26T08:15:36.212Z,6.45
2018-11-26T08:18:06.199Z,6.17
2018-11-26T08:20:35.287Z,5.00
2018-11-26T08:23:04.839Z,6.30
2018-11-26T08:25:35.785Z,7.12
2018-11-26T08:28:05.247Z,6.00
2018-11-26T08:30:35.796Z,7.45
2018-11-26T08:33:06.468Z,7.10
2018-11-26T08:35:35.674Z,6.17
2018-11-26T08:38:08.442Z,8.18
2018-11-26T08:40:42.489Z,6.50
2018-11-26T08:43:17.173Z,8.95
2018-11-26T08:45:54.364Z,6.58
2018-11-26T08:48:28.186Z,5.75
2018-11-26T08:50:58.488Z,5.62
2018-11-26T08:53:27.755Z,6.17
2018-11-26T08:55:57.691Z,6.28
2018-11-26T08:58:26.782Z,5.35
2018-11-26T09:01:05.503Z,7.08
2018-11-26T09:03:35.571Z,5.78
2018-11-26T09:06:05.286Z,6.83
2018-11-26T09:08:35.715Z,6.90
2018-11-26T09:11:05.907Z,6.12
2018-11-26T09:13:34.984Z,9.15
2018-11-26T09:16:05.392Z,5.25
2018-11-26T09:18:35.040Z,5.80
2018-11-26T09:21:05.290Z,5.35
2018-11-26T09:23:34.355Z,4.28
2018-11-26T09:26:04.101Z,6.25
2018-11-26T09:28:33.293Z,6.05
2018-11-26T09:31:03.580Z,6.33
2018-11-26T09:33:34.187Z,9.23
2018-11-26T09:36:03.274Z,6.50
2018-11-26T09:38:32.370Z,6.72
2018-11-26T09:41:01.559Z,5.10
2018-11-26T09:43:31.411Z,6.05
2018-11-26T09:46:01.308Z,6.47
2018-11-26T09:48:31.118Z,6.20
2018-11-26T09:51:00.215Z,6.33
2018-11-26T09:53:29.507Z,6.08
2018-11-26T09:55:58.956Z,5.47
2018-11-26T09:58:29.607Z,5.65
2018-11-26T10:00:59.669Z,5.62
2018-11-26T10:03:28.766Z,7.12
2018-11-26T10:05:58.045Z,5.90
2018-11-26T10:08:27.183Z,8.23
2018-11-26T10:10:57.079Z,5.00
2018-11-26T10:13:26.269Z,5.10
2018-11-26T10:15:55.865Z,6.00
2018-11-26T10:18:25.873Z,6.78
2018-11-26T10:20:55.470Z,4.95
2018-11-26T10:23:24.536Z,7.22
2018-11-26T10:25:53.883Z,6.62
2018-11-26T10:28:22.969Z,5.87
2018-11-26T10:30:53.876Z,7.70
2018-11-26T10:33:24.036Z,7.35
2018-11-26T10:35:53.307Z,5.53
2018-11-26T10:38:22.696Z,5.47
2018-11-26T10:40:52.428Z,5.53
2018-11-26T10:43:21.595Z,5.75
2018-11-26T10:45:51.027Z,6.50
2018-11-26T10:48:20.181Z,5.22
2018-11-26T10:50:49.516Z,7.58
2018-11-26T10:53:19.218Z,5.15
2018-11-26T10:55:49.079Z,7.22
2018-11-26T10:58:19.315Z,5.92
2018-11-26T11:00:55.035Z,7.05
2018-11-26T11:03:24.232Z,7.10
2018-11-26T11:05:53.544Z,6.58
2018-11-26T11:08:23.865Z,5.97
2018-11-26T11:10:52.567Z,9.00
2018-11-26T11:13:21.637Z,8.43
2018-11-26T11:15:52.095Z,5.33
2018-11-26T11:18:21.795Z,9.30
2018-11-26T11:20:51.057Z,7.47
2018-11-26T11:23:20.107Z,5.78
2018-11-26T11:25:49.751Z,8.15
2018-11-26T11:28:18.821Z,6.42
2018-11-26T11:30:49.442Z,8.05
2018-11-26T11:35:48.692Z,6.40
2018-11-26T11:38:18.983Z,6.80
2018-11-26T11:40:49.040Z,5.60
2018-11-26T11:43:18.093Z,6.72
2018-11-26T11:45:47.884Z,8.73
2018-11-26T11:48:17.204Z,6.45
2018-11-26T11:50:46.319Z,5.45
2018-11-26T11:53:15.388Z,6.22
2018-11-26T11:55:44.553Z,6.55
2018-11-26T11:58:14.265Z,7.33
2018-11-26T12:00:46.256Z,5.90
2018-11-26T12:03:18.689Z,6.83
2018-11-26T12:05:47.792Z,6.45
2018-11-26T12:08:17.536Z,6.35
2018-11-26T12:10:46.716Z,7.17
2018-11-26T12:13:16.699Z,7.17
2018-11-26T12:15:52.586Z,7.60
2018-11-26T12:18:22.066Z,6.17
2018-11-26T12:20:51.157Z,7.30
2018-11-26T12:23:20.937Z,6.83
2018-11-26T12:25:51.244Z,9.95
2018-11-26T12:28:20.453Z,10.43
2018-11-26T12:30:50.555Z,10.80
2018-11-26T12:33:20.889Z,10.50
2018-11-26T12:35:50.478Z,12.95
2018-11-26T12:38:19.577Z,12.73
2018-11-26T12:40:49.215Z,13.32
2018-11-26T12:43:19.011Z,10.65
2018-11-26T12:45:48.827Z,12.25
2018-11-26T12:48:17.900Z,10.38
2018-11-26T12:50:46.976Z,11.57
2018-11-26T12:53:16.798Z,12.85
2018-11-26T12:55:46.008Z,10.25
2018-11-26T12:58:16.112Z,9.88
2018-11-26T13:00:46.122Z,11.05
2018-11-26T13:03:15.307Z,11.08
2018-11-26T13:05:44.523Z,9.40
2018-11-26T13:08:14.567Z,12.43
2018-11-26T13:10:43.832Z,11.53
2018-11-26T13:13:13.106Z,12.47
2018-11-26T13:15:43.122Z,10.38
2018-11-26T13:18:12.403Z,11.43
2018-11-26T13:20:41.984Z,12.18
2018-11-26T13:23:11.999Z,9.83
2018-11-26T13:25:42.229Z,10.25
2018-11-26T13:28:11.572Z,18.75
2018-11-26T13:30:43.405Z,14.20
2018-11-26T13:33:16.072Z,15.55
2018-11-26T13:35:46.254Z,12.55
2018-11-26T13:38:16.259Z,14.70
2018-11-26T13:40:46.321Z,12.82
2018-11-26T13:43:16.553Z,21.23
2018-11-26T13:45:48.694Z,12.40
2018-11-26T13:48:18.813Z,15.83
2018-11-26T13:50:50.561Z,13.80
2018-11-26T13:53:19.661Z,10.50
2018-11-26T13:55:48.932Z,11.08
2018-11-26T13:58:18.063Z,13.83
2018-11-26T14:00:47.952Z,12.20
2018-11-26T14:03:17.027Z,12.82
2018-11-26T14:05:46.824Z,10.80
2018-11-26T14:08:16.992Z,12.23
2018-11-26T14:10:46.129Z,12.20
2018-11-26T14:13:16.093Z,14.03
2018-11-26T14:15:46.119Z,9.33
2018-11-26T14:18:16.509Z,12.00
2018-11-26T14:20:46.248Z,14.87
2018-11-26T14:23:16.203Z,15.32
2018-11-26T14:25:45.385Z,15.98
2018-11-26T14:28:15.067Z,13.75
2018-11-26T14:30:45.039Z,13.28
2018-11-26T14:33:15.040Z,13.93
2018-11-26T14:35:44.112Z,11.75
2018-11-26T14:38:13.193Z,14.18
2018-11-26T14:40:46.741Z,18.35
2018-11-26T14:43:15.941Z,11.93
2018-11-26T14:45:46.181Z,17.10
2018-11-26T14:48:16.460Z,12.65
2018-11-26T14:50:45.661Z,16.07
2018-11-26T14:53:16.938Z,12.73
2018-11-26T14:55:46.140Z,13.30
2018-11-26T14:58:15.908Z,10.72
2018-11-26T15:00:45.811Z,13.93
2018-11-26T15:03:14.893Z,18.02
2018-11-26T15:05:44.232Z,11.80
2018-11-26T15:08:14.444Z,11.88
2018-11-26T15:10:43.541Z,11.10
2018-11-26T15:13:12.717Z,17.50
2018-11-26T15:15:42.661Z,11.57
2018-11-26T15:18:11.932Z,13.13
2018-11-26T15:20:43.190Z,9.58
2018-11-26T15:23:13.228Z,13.70
2018-11-26T15:25:43.097Z,12.80
2018-11-26T15:28:14.332Z,14.98
2018-11-26T15:30:44.100Z,15.75
2018-11-26T15:33:14.809Z,15.58
2018-11-26T15:35:44.496Z,17.15
2018-11-26T15:38:14.308Z,14.98
2018-11-26T15:40:43.596Z,14.58
2018-11-26T15:43:12.726Z,13.00
2018-11-26T15:45:41.759Z,18.32
2018-11-26T15:48:13.092Z,16.60
2018-11-26T15:50:42.808Z,18.95
2018-11-26T15:53:11.927Z,19.85
2018-11-26T15:55:41.075Z,15.20
2018-11-26T15:58:10.601Z,17.40
2018-11-26T16:00:40.080Z,16.42
2018-11-26T16:03:09.172Z,19.00
2018-11-26T16:05:38.966Z,16.27
2018-11-26T16:08:10.818Z,18.85
2018-11-26T16:10:40.001Z,17.05
2018-11-26T16:13:10.908Z,15.65
2018-11-26T16:15:42.239Z,13.43
2018-11-26T16:18:18.396Z,14.95
2018-11-26T16:20:47.843Z,14.10
2018-11-26T16:23:17.932Z,20.27
2018-11-26T16:25:49.228Z,18.07
2018-11-26T16:28:21.056Z,24.32
2018-11-26T16:30:51.169Z,15.75
2018-11-26T16:33:21.435Z,16.23
2018-11-26T16:35:50.516Z,20.12
2018-11-26T16:38:20.802Z,17.90
2018-11-26T16:40:50.981Z,16.85
2018-11-26T16:43:20.713Z,11.60
2018-11-26T16:45:51.004Z,16.73
2018-11-26T16:48:21.779Z,13.45
2018-11-26T16:50:51.091Z,15.25
2018-11-26T16:53:20.628Z,13.40
2018-11-26T16:55:49.753Z,12.82
2018-11-26T16:58:18.848Z,14.70
2018-11-26T17:00:48.826Z,13.93
2018-11-26T17:03:18.067Z,14.25
2018-11-26T17:05:48.223Z,12.47
2018-11-26T17:08:17.788Z,16.20
2018-11-26T17:10:47.835Z,11.90
2018-11-26T17:13:15.989Z,15.40
2018-11-26T17:15:46.041Z,12.40
2018-11-26T17:18:15.172Z,11.30
2018-11-26T17:20:44.822Z,13.98
2018-11-26T17:23:14.871Z,14.60
2018-11-26T17:25:44.947Z,19.65
2018-11-26T17:28:14.064Z,17.92
2018-11-26T17:30:44.377Z,17.98
2018-11-26T17:33:14.328Z,16.50
2018-11-26T17:35:43.628Z,18.87
2018-11-26T17:38:14.168Z,16.85
2018-11-26T17:40:44.013Z,17.20
2018-11-26T17:43:14.404Z,17.10
2018-11-26T17:45:44.411Z,18.42
2018-11-26T17:48:14.281Z,18.00
2018-11-26T17:50:44.666Z,21.95
2018-11-26T17:53:15.991Z,17.75
2018-11-26T17:55:48.167Z,21.93
2018-11-26T17:58:18.135Z,19.48
2018-11-26T18:00:53.532Z,21.65
2018-11-26T18:03:22.603Z,21.85
2018-11-26T18:05:51.684Z,17.07
2018-11-26T18:08:23.072Z,16.42
2018-11-26T18:10:52.156Z,15.98
2018-11-26T18:13:21.815Z,16.07
2018-11-26T18:15:51.579Z,20.52
2018-11-26T18:18:20.821Z,14.30
2018-11-26T18:20:50.846Z,15.28
2018-11-26T18:23:20.616Z,15.45
2018-11-26T18:25:50.416Z,13.65
2018-11-26T18:28:19.521Z,15.13
2018-11-26T18:30:50.431Z,12.53
2018-11-26T18:33:20.377Z,15.80
2018-11-26T18:35:50.896Z,13.68
2018-11-26T18:38:20.846Z,15.32
2018-11-26T18:40:51.103Z,12.95
2018-11-26T18:43:20.828Z,15.40
2018-11-26T18:45:50.234Z,16.45
2018-11-26T18:48:20.804Z,15.50
2018-11-26T18:50:50.606Z,12.25
2018-11-26T18:53:20.957Z,13.30
2018-11-26T18:55:50.050Z,12.58
2018-11-26T18:58:19.112Z,12.78
2018-11-26T19:00:50.407Z,13.60
2018-11-26T19:03:21.045Z,12.10
2018-11-26T19:05:53.355Z,13.00
2018-11-26T19:08:22.496Z,13.28
2018-11-26T19:10:53.808Z,17.70
2018-11-26T19:13:25.923Z,12.55
2018-11-26T19:16:07.354Z,12.58
2018-11-26T19:18:37.430Z,13.40
2018-11-26T19:21:07.489Z,13.75
2018-11-26T19:23:37.504Z,11.33
2018-11-26T19:26:06.685Z,10.98
2018-11-26T19:28:36.056Z,11.68
2018-11-26T19:31:07.106Z,11.93
2018-11-26T19:33:37.283Z,11.40
2018-11-26T19:36:07.059Z,13.05
2018-11-26T19:38:36.820Z,15.38
2018-11-26T19:41:06.289Z,12.93
2018-11-26T19:43:35.960Z,12.43
2018-11-26T19:46:05.485Z,14.25
2018-11-26T19:48:35.363Z,11.10
2018-11-26T19:51:05.209Z,13.13
2018-11-26T19:53:34.308Z,13.35
2018-11-26T19:56:03.937Z,11.93
2018-11-26T19:58:33.032Z,13.40
2018-11-26T20:01:03.792Z,12.15
2018-11-26T20:03:37.848Z,13.05
2018-11-26T20:06:11.268Z,11.55
2018-11-26T20:08:42.198Z,14.80
2018-11-26T20:11:12.035Z,14.20
2018-11-26T20:13:41.384Z,10.82
2018-11-26T20:16:23.044Z,10.15
2018-11-26T20:18:52.736Z,10.08
2018-11-26T20:21:22.436Z,11.50
2018-11-26T20:23:51.969Z,11.53
2018-11-26T20:26:21.067Z,13.90
2018-11-26T20:28:51.128Z,11.78
2018-11-26T20:31:20.910Z,11.12
2018-11-26T20:33:50.360Z,12.28
2018-11-26T20:36:20.793Z,10.90
2018-11-26T20:38:50.618Z,10.13
2018-11-26T20:41:20.288Z,9.98
2018-11-26T20:43:49.405Z,10.28
2018-11-26T20:46:19.663Z,12.40
2018-11-26T20:48:49.587Z,10.38
2018-11-26T20:51:19.050Z,9.88
2018-11-26T20:53:48.602Z,9.98
2018-11-26T20:56:20.206Z,9.45
2018-11-26T20:58:50.039Z,9.35
2018-11-26T21:01:20.076Z,10.32
2018-11-26T21:03:49.297Z,9.98
2018-11-26T21:06:18.910Z,10.23
2018-11-26T21:08:48.479Z,8.73
2018-11-26T21:11:18.551Z,9.60
2018-11-26T21:13:48.676Z,8.85
2018-11-26T21:16:18.940Z,8.30
2018-11-26T21:18:48.701Z,9.75
2018-11-26T21:21:18.179Z,9.50
2018-11-26T21:23:49.075Z,9.90
2018-11-26T21:26:19.138Z,10.03
2018-11-26T21:28:48.307Z,8.65
2018-11-26T21:31:18.074Z,10.75
2018-11-26T21:33:47.862Z,10.50
2018-11-26T21:36:16.992Z,9.75
2018-11-26T21:38:46.133Z,8.78
2018-11-26T21:41:16.757Z,9.58
2018-11-26T21:43:46.471Z,10.55
2018-11-26T21:46:15.576Z,8.58
2018-11-26T21:48:45.362Z,7.92
2018-11-26T21:51:14.673Z,9.13
2018-11-26T21:53:44.360Z,8.50
2018-11-26T21:56:13.927Z,8.75
2018-11-26T21:58:43.263Z,9.53
2018-11-26T22:01:13.308Z,9.95
2018-11-26T22:03:42.816Z,8.78
2018-11-26T22:06:11.928Z,8.65
2018-11-26T22:08:41.612Z,7.85
2018-11-26T22:11:11.839Z,8.25
2018-11-26T22:13:41.504Z,8.70
2018-11-26T22:16:11.044Z,7.22
2018-11-26T22:18:40.609Z,9.43
2018-11-26T22:21:10.574Z,8.83
2018-11-26T22:23:40.285Z,9.00
2018-11-26T22:26:09.505Z,8.48
2018-11-26T22:28:38.645Z,8.38
2018-11-26T22:31:09.496Z,8.05
2018-11-26T22:33:39.790Z,8.55
2018-11-26T22:36:09.162Z,7.87
2018-11-26T22:38:38.362Z,8.93
2018-11-26T22:41:08.916Z,8.78
2018-11-26T22:43:38.015Z,7.85
2018-11-26T22:46:07.354Z,8.33
2018-11-26T22:48:37.124Z,7.35
2018-11-26T22:51:07.379Z,8.13
2018-11-26T22:53:37.088Z,8.70
2018-11-26T22:56:06.710Z,7.20
2018-11-26T22:58:35.977Z,6.78
2018-11-26T23:01:06.520Z,9.80
2018-11-26T23:03:36.349Z,7.30
2018-11-26T23:06:06.163Z,7.67
2018-11-26T23:08:37.191Z,7.85
2018-11-26T23:11:07.911Z,8.30
2018-11-26T23:13:37.564Z,8.93
2018-11-26T23:16:07.683Z,7.75
2018-11-26T23:18:37.082Z,7.87
2018-11-26T23:21:06.990Z,7.92
2018-11-26T23:23:36.552Z,7.37
2018-11-26T23:26:06.140Z,8.55
2018-11-26T23:28:35.448Z,7.28
2018-11-26T23:31:05.169Z,7.05
2018-11-26T23:33:35.863Z,7.62
2018-11-26T23:36:05.212Z,8.03
2018-11-26T23:38:34.395Z,7.67
2018-11-26T23:41:04.252Z,7.10
2018-11-26T23:43:33.348Z,9.03
2018-11-26T23:46:02.640Z,6.67
2018-11-26T23:48:31.764Z,7.47
2018-11-26T23:51:02.263Z,7.25
2018-11-26T23:53:32.381Z,7.30
2018-11-26T23:56:01.930Z,7.67
2018-11-26T23:58:31.012Z,7.42
